Terminal Aerodrome Forecast
Issued by NWS

Home | Current Version | Previous Version | Text Only | Print | Product List | Glossary On
Versions: 1 2 3 4 5 6 7 8 9 10 11 12 13 14 15
000
FTUS44 KEWX 301100
TAFSSF
TAF
KSSF 301135Z 3012/3112 00000KT P6SM SCT010
     FM301700 13008KT P6SM SCT035 SCT100
     FM310800 13003KT P6SM BKN010=

USA.gov is the U.S. government's official web portal to all federal, state and local government web resources and services.